De Bilt, Netherlands
Current Conditions -  °F | °C
As of 10:25 AM on Thursday 27 Nov 2014 (Local Time) from EHAM Reporting Station
Broken Clouds Broken Clouds  
Wind Chill: 41°   Ceiling: 700
Heat Index: 46°   Visibility: 5mi
Dew Point: 43°   Wind: 12mph
Humidity: 87%   Direction: 130°SE
Pressure: 29.74"   Gusts: NA
Location:  52.14°N, 5.16°E
Report Text: EHAM 270925Z 13010KT 8000 BKN007 08/06 Q1007 BECMG BKN010
Loading
Personal Weather Stations






























Interactive Weather Map New forecast layout! Learn more

10-Day Weather Forecast

Advertisements
Track Severe Weather on mobile